This is the latest recevied weather packets stored in our database for station/object KO6LQJ. If no packets are shown the sender has not sent any weather packets the latest 1 day(s).
| Time | Temp. | Humidity | Pressure | Rain* | Wind** | Luminosity | Snow |
|---|---|---|---|---|---|---|---|
| 1778054478 | 12.78° C | 71% | 1019.8 hPa | 0 mm | - | 0 W/m² | - |
| 1778054176 | 12.78° C | 70% | 1019.6 hPa | 0 mm | - | 0 W/m² | - |
| 1778053872 | 12.22° C | 71% | 1019.6 hPa | 0 mm | - | 0 W/m² | - |
| 1778053570 | 12.22° C | 71% | 1019.5 hPa | 0 mm | - | 0 W/m² | - |
| 1778053267 | 12.22° C | 71% | 1019.6 hPa | 0 mm | - | 0 W/m² | - |
| 1778052662 | 12.78° C | 70% | 1019.8 hPa | 0 mm | - | 0 W/m² | - |
| 1778052358 | 12.78° C | 70% | 1019.5 hPa | 0 mm | - | 0 W/m² | - |
| 1778051754 | 13.33° C | 67% | 1019.5 hPa | 0 mm | - | 0 W/m² | - |
| 1778051451 | 13.33° C | 66% | 1019.3 hPa | 0 mm | - | 0 W/m² | - |
| 1778049632 | 13.33° C | 69% | 1019.1 hPa | 0 mm | - | 0 W/m² | - |
| 1778049330 | 13.33° C | 69% | 1019.1 hPa | 0 mm | - | 0 W/m² | - |
| 1778048726 | 12.78° C | 70% | 1019 hPa | 0 mm | - | 0 W/m² | - |
| 1778048118 | 12.78° C | 69% | 1018.8 hPa | 0 mm | - | 0 W/m² | - |
| 1778047211 | 13.33° C | 68% | 1019 hPa | 0 mm | - | 0 W/m² | - |
| 1778045696 | 14.44° C | 66% | 1018.7 hPa | 0 mm | - | 0 W/m² | - |
| 1778045394 | 14.44° C | 66% | 1018.8 hPa | 0 mm | - | 0 W/m² | - |
| 1778045093 | 14.44° C | 66% | 1018.7 hPa | 0 mm | - | 0 W/m² | - |
| 1778044486 | 13.89° C | 66% | 1018.5 hPa | 0 mm | - | 0 W/m² | - |
| 1778044183 | 13.89° C | 66% | 1018.6 hPa | 0 mm | - | 0 W/m² | - |
| 1778043881 | 13.89° C | 65% | 1018.6 hPa | 0 mm | - | 0 W/m² | - |
| 1778043578 | 14.44° C | 65% | 1018.5 hPa | 0 mm | - | 0 W/m² | - |
| 1778042971 | 14.44° C | 64% | 1018.4 hPa | 0 mm | - | 0 W/m² | - |
| 1778042670 | 15° C | 63% | 1018.1 hPa | 0 mm | - | 0 W/m² | - |
| 1778042366 | 15° C | 63% | 1018 hPa | 0 mm | - | 0 W/m² | - |
| 1778042063 | 14.44° C | 63% | 1017.8 hPa | 0 mm | - | 0 W/m² | - |
* Rain latest hour (hover to see other rain measurements)
** Current wind speed in m/s (hover to see current wind gust speed)